Time;durP1;ratioP1;P1;durP2;ratioP2;P2;SDS_P1;SDS_P2;PMS_P1;PMS_P2;Temp;Humidity;BMP_temperature;BMP_pressure;BME280_temperature;BME280_humidity;BME280_pressure;Samples;Min_cycle;Max_cycle;Signal;HPM_P1;HPM_P2
2023/06/28 00:01:11;338604.00;1.13;584.27;0.00;0.00;0.62;;;;;24.00;1.00;;;;;;2268601;61;1113;-88
2023/06/28 00:03:38;200050.00;0.67;346.01;0.00;0.00;0.62;;;;;24.20;1.00;;;;;;2268541;61;2002;-87
2023/06/28 00:06:06;184299.00;0.61;318.89;0.00;0.00;0.62;;;;;24.40;1.00;;;;;;2268558;61;1625;-89
2023/06/28 00:08:33;238770.00;0.80;412.64;0.00;0.00;0.62;;;;;24.40;1.00;;;;;;2268555;61;1407;-88
2023/06/28 00:11:00;187773.00;0.63;324.87;0.00;0.00;0.62;;;;;24.30;1.00;;;;;;2268651;61;927;-88
2023/06/28 00:13:27;123145.00;0.41;213.51;0.00;0.00;0.62;;;;;24.50;1.00;;;;;;2268603;61;1053;-87
2023/06/28 00:15:54;98033.00;0.33;170.18;0.00;0.00;0.62;;;;;24.40;1.00;;;;;;2268561;61;1119;-88
2023/06/28 00:18:21;265906.00;0.89;459.30;0.00;0.00;0.62;;;;;24.10;1.00;;;;;;2268449;61;1362;-87
2023/06/28 00:20:48;315616.00;1.05;544.76;0.00;0.00;0.62;;;;;23.90;1.00;;;;;;2268534;61;1153;-88
2023/06/28 00:23:16;261999.00;0.87;452.59;8359.00;0.03;15.11;;;;;23.80;1.00;;;;;;2268533;61;1009;-86
2023/06/28 00:25:43;328965.00;1.10;567.71;0.00;0.00;0.62;;;;;23.70;1.00;;;;;;2268493;61;2006;-86
2023/06/28 00:28:10;172711.00;0.58;298.94;0.00;0.00;0.62;;;;;23.70;1.00;;;;;;2268454;61;1268;-87
2023/06/28 00:30:37;216682.00;0.72;374.63;0.00;0.00;0.62;;;;;23.80;1.00;;;;;;2268470;61;1007;-86
2023/06/28 00:33:04;278703.00;0.93;481.31;0.00;0.00;0.62;;;;;23.40;1.00;;;;;;2268421;61;1076;-88
2023/06/28 00:35:30;186570.00;0.62;322.80;0.00;0.00;0.62;;;;;23.40;1.00;;;;;;2268497;61;939;-85
2023/06/28 00:37:57;246292.00;0.82;425.57;0.00;0.00;0.62;;;;;23.40;1.00;;;;;;2268340;61;1613;-87
2023/06/28 00:40:26;215187.00;0.72;372.06;0.00;0.00;0.62;;;;;23.40;1.00;;;;;;2268446;61;1750;-87
2023/06/28 00:42:52;219954.00;0.73;380.26;0.00;0.00;0.62;;;;;23.30;1.00;;;;;;2268424;61;1756;-86
2023/06/28 00:45:19;234444.00;0.78;405.19;0.00;0.00;0.62;;;;;23.40;1.00;;;;;;2268348;61;1994;-87
2023/06/28 00:47:48;237045.00;0.79;409.67;0.00;0.00;0.62;;;;;23.30;1.00;;;;;;2268289;61;1587;-85
2023/06/28 00:50:16;205826.00;0.69;355.95;0.00;0.00;0.62;;;;;23.40;1.00;;;;;;2268443;61;1021;-87
2023/06/28 00:52:44;285155.00;0.95;492.40;0.00;0.00;0.62;;;;;23.60;1.00;;;;;;2268437;61;1072;-88
2023/06/28 00:55:11;145930.00;0.49;252.79;0.00;0.00;0.62;;;;;23.70;1.00;;;;;;2268191;61;1150;-87
2023/06/28 00:57:39;357813.00;1.19;617.29;0.00;0.00;0.62;;;;;23.70;1.00;;;;;;2268387;61;1284;-87
2023/06/28 01:00:08;254468.00;0.85;439.64;0.00;0.00;0.62;;;;;24.00;1.00;;;;;;2268366;61;1057;-88
2023/06/28 01:02:35;336245.00;1.12;580.22;0.00;0.00;0.62;;;;;23.80;1.00;;;;;;2268291;61;1595;-86
2023/06/28 01:05:03;253909.00;0.85;438.67;0.00;0.00;0.62;;;;;23.70;1.00;;;;;;2268287;61;2391;-87
2023/06/28 01:07:35;542583.00;1.81;935.17;21014.00;0.07;37.03;;;;;23.50;1.00;;;;;;2268260;61;1377;-88
2023/06/28 01:10:03;188726.00;0.63;326.52;0.00;0.00;0.62;;;;;23.40;1.00;;;;;;2268295;61;1058;-87
2023/06/28 01:12:31;426747.00;1.42;735.79;0.00;0.00;0.62;;;;;23.40;1.00;;;;;;2268337;61;1182;-87
2023/06/28 01:14:59;413618.00;1.38;713.22;0.00;0.00;0.62;;;;;23.50;1.00;;;;;;2268347;61;930;-88
2023/06/28 01:17:26;273037.00;0.91;471.57;0.00;0.00;0.62;;;;;23.50;1.00;;;;;;2268347;61;1382;-86
2023/06/28 01:19:54;208019.00;0.69;359.73;0.00;0.00;0.62;;;;;23.50;1.00;;;;;;2268317;61;1134;-87
2023/06/28 01:22:24;117116.00;0.39;203.11;0.00;0.00;0.62;;;;;23.40;1.00;;;;;;2268345;61;1047;-89
2023/06/28 01:24:53;163543.00;0.55;283.14;0.00;0.00;0.62;;;;;23.10;1.00;;;;;;2268320;61;1986;-87
2023/06/28 01:27:20;279272.00;0.93;482.29;0.00;0.00;0.62;;;;;23.30;1.00;;;;;;2268272;61;1293;-86
2023/06/28 01:29:48;331889.00;1.11;572.73;0.00;0.00;0.62;;;;;23.30;1.00;;;;;;2268161;61;1139;-86
2023/06/28 01:32:17;175380.00;0.58;303.53;0.00;0.00;0.62;;;;;23.40;1.00;;;;;;2268113;61;1009;-87
2023/06/28 01:34:44;283617.00;0.95;489.76;10797.00;0.04;19.33;;;;;23.30;1.00;;;;;;2268288;61;955;-86
2023/06/28 01:37:10;119658.00;0.40;207.49;0.00;0.00;0.62;;;;;23.30;1.00;;;;;;2268272;61;1456;-86
2023/06/28 01:39:37;584866.00;1.95;1008.10;106564.00;0.36;184.90;;;;;23.50;1.00;;;;;;2268232;61;968;-87
2023/06/28 01:42:07;477512.00;1.59;823.12;84269.00;0.28;146.41;;;;;23.70;1.00;;;;;;2268228;61;1142;-87
2023/06/28 01:44:34;341917.00;1.14;589.97;80656.00;0.27;140.17;;;;;23.60;1.00;;;;;;2268221;61;1990;-86
2023/06/28 01:47:01;471046.00;1.57;811.99;85104.00;0.28;147.85;;;;;23.50;1.00;;;;;;2268194;61;1411;-87
2023/06/28 01:49:28;502678.00;1.68;866.43;76806.00;0.26;133.52;;;;;23.60;1.00;;;;;;2268229;61;1033;-86
2023/06/28 01:51:55;423263.00;1.41;729.80;65284.00;0.22;113.61;;;;;23.70;1.00;;;;;;2268064;61;1764;-87
2023/06/28 01:54:22;571824.00;1.91;985.59;86188.00;0.29;149.72;;;;;23.80;1.00;;;;;;2268145;61;1681;-85
2023/06/28 01:56:49;402542.00;1.34;694.18;76814.00;0.26;133.53;;;;;23.90;1.00;;;;;;2268151;61;1588;-87
2023/06/28 01:59:17;481682.00;1.61;830.29;78215.00;0.26;135.95;;;;;23.90;1.00;;;;;;2268076;61;1232;-90
2023/06/28 02:01:45;297216.00;0.99;513.13;88721.00;0.30;154.10;;;;;23.80;1.00;;;;;;2268180;61;1124;-87
2023/06/28 02:04:12;737892.00;2.46;1273.01;106520.00;0.36;184.82;;;;;23.90;1.00;;;;;;2268137;61;1915;-87
2023/06/28 02:06:40;346643.00;1.16;598.09;91126.00;0.30;158.25;;;;;23.80;1.00;;;;;;2268113;61;1388;-87
2023/06/28 02:09:07;525154.00;1.75;905.14;78147.00;0.26;135.84;;;;;23.60;1.00;;;;;;2268080;61;2438;-86
2023/06/28 02:11:34;207137.00;0.69;358.21;0.00;0.00;0.62;;;;;23.70;1.00;;;;;;2268111;61;1106;-86
2023/06/28 02:14:01;124182.00;0.41;215.30;0.00;0.00;0.62;;;;;23.70;1.00;;;;;;2268110;61;2446;-86
2023/06/28 02:16:31;362502.00;1.21;625.35;0.00;0.00;0.62;;;;;23.50;1.00;;;;;;2268150;61;1403;-87
2023/06/28 02:18:58;384455.00;1.28;663.08;11270.00;0.04;20.15;;;;;23.40;1.00;;;;;;2268142;61;1036;-86
2023/06/28 02:21:26;207042.00;0.69;358.04;0.00;0.00;0.62;;;;;23.40;1.00;;;;;;2268142;61;927;-87
2023/06/28 02:23:52;166258.00;0.55;287.82;0.00;0.00;0.62;;;;;23.20;1.00;;;;;;2268117;61;1098;-86
2023/06/28 02:26:19;215581.00;0.72;372.74;0.00;0.00;0.62;;;;;23.00;1.00;;;;;;2268078;61;2009;-87
2023/06/28 02:28:46;192816.00;0.64;333.56;0.00;0.00;0.62;;;;;23.00;1.00;;;;;;2268042;61;1483;-87
2023/06/28 02:31:13;156271.00;0.52;270.61;0.00;0.00;0.62;;;;;22.90;1.00;;;;;;2268091;61;1229;-87
2023/06/28 02:33:41;496255.00;1.65;855.38;34055.00;0.11;59.60;;;;;22.80;1.00;;;;;;2268112;61;1188;-87
2023/06/28 02:36:08;277448.00;0.92;479.15;38473.00;0.13;67.25;;;;;22.70;1.00;;;;;;2268117;61;1165;-86
2023/06/28 02:38:35;177428.00;0.59;307.06;0.00;0.00;0.62;;;;;22.70;1.00;;;;;;2268049;61;1281;-86
2023/06/28 02:41:02;270650.00;0.90;467.46;0.00;0.00;0.62;;;;;22.50;1.00;;;;;;2268065;61;1056;-87
2023/06/28 02:43:29;369618.00;1.23;637.58;0.00;0.00;0.62;;;;;22.40;1.00;;;;;;2268044;61;998;-88
2023/06/28 02:45:56;270255.00;0.90;466.78;0.00;0.00;0.62;;;;;22.40;1.00;;;;;;2268040;61;1915;-87
2023/06/28 02:48:22;390335.00;1.30;673.19;0.00;0.00;0.62;;;;;22.30;1.00;;;;;;2268024;61;1395;-84
2023/06/28 02:50:51;307367.00;1.02;530.58;0.00;0.00;0.62;;;;;22.10;1.00;;;;;;2268044;61;1080;-86
2023/06/28 02:53:17;694792.00;2.32;1198.21;84245.00;0.28;146.37;;;;;22.10;1.00;;;;;;2268012;61;2436;-85
2023/06/28 02:55:44;210430.00;0.70;363.88;0.00;0.00;0.62;;;;;22.00;1.00;;;;;;2268056;61;1110;-85
2023/06/28 02:58:11;227949.00;0.76;394.02;0.00;0.00;0.62;;;;;21.90;1.00;;;;;;2267959;61;1392;-85
2023/06/28 03:03:13;300109.00;1.00;518.11;0.00;0.00;0.62;;;;;22.00;1.00;;;;;;2273908;61;1396;-86
2023/06/28 03:05:39;152718.00;0.51;264.49;0.00;0.00;0.62;;;;;22.00;1.00;;;;;;2272334;61;1992;-86
2023/06/28 03:08:08;354899.00;1.18;612.28;19588.00;0.07;34.56;;;;;22.10;1.00;;;;;;2272364;61;1418;-88
2023/06/28 03:13:04;376441.00;1.25;649.31;21699.00;0.07;38.21;;;;;22.30;1.00;;;;;;2270142;61;1197;-88
2023/06/28 03:15:31;530198.00;1.77;913.83;45227.00;0.15;78.93;;;;;22.60;1.00;;;;;;2268280;61;1123;-88
2023/06/28 03:17:58;220232.00;0.73;380.74;0.00;0.00;0.62;;;;;22.60;1.00;;;;;;2268237;61;1295;-88
2023/06/28 03:20:25;136537.00;0.46;236.60;0.00;0.00;0.62;;;;;22.70;1.00;;;;;;2268246;61;1707;-87
2023/06/28 03:22:51;281084.00;0.94;485.40;17400.00;0.06;30.77;;;;;22.60;1.00;;;;;;2268228;61;1621;-88
2023/06/28 03:25:20;246678.00;0.82;426.24;0.00;0.00;0.62;;;;;22.50;1.00;;;;;;2268243;61;1991;-87
2023/06/28 03:27:46;125794.00;0.42;218.08;0.00;0.00;0.62;;;;;22.50;1.00;;;;;;2268262;61;1386;-88
2023/06/28 03:30:13;202726.00;0.68;350.62;0.00;0.00;0.62;;;;;22.50;1.00;;;;;;2268327;61;1047;-87
2023/06/28 03:32:40;534336.00;1.78;920.96;34750.00;0.12;60.80;;;;;22.40;1.00;;;;;;2268289;61;942;-88
2023/06/28 03:35:08;293852.00;0.98;507.35;0.00;0.00;0.62;;;;;22.30;1.00;;;;;;2268243;61;1175;-87
2023/06/28 03:37:35;161648.00;0.54;279.88;0.00;0.00;0.62;;;;;22.30;1.00;;;;;;2268230;61;1285;-88
2023/06/28 03:40:03;148169.00;0.49;256.65;0.00;0.00;0.62;;;;;22.40;1.00;;;;;;2268190;61;1691;-86
2023/06/28 03:42:31;198269.00;0.66;342.94;0.00;0.00;0.62;;;;;22.40;1.00;;;;;;2268220;61;1060;-87
2023/06/28 03:44:58;489357.00;1.63;843.50;128428.00;0.43;222.62;;;;;22.60;1.00;;;;;;2268228;61;2000;-87
2023/06/28 03:47:25;347256.00;1.16;599.14;12072.00;0.04;21.54;;;;;22.60;1.00;;;;;;2268176;61;1422;-87
2023/06/28 03:49:51;468434.00;1.56;807.50;78969.00;0.26;137.26;;;;;22.80;1.00;;;;;;2268254;61;1118;-87
2023/06/28 03:52:20;212211.00;0.71;366.94;0.00;0.00;0.62;;;;;22.70;1.00;;;;;;2268168;61;1164;-87
2023/06/28 03:54:46;228747.00;0.76;395.39;0.00;0.00;0.62;;;;;22.90;1.00;;;;;;2268217;61;1580;-87
2023/06/28 03:57:13;166955.00;0.56;289.02;0.00;0.00;0.62;;;;;22.90;1.00;;;;;;2268176;61;1318;-87
2023/06/28 03:59:42;282363.00;0.94;487.60;0.00;0.00;0.62;;;;;22.80;1.00;;;;;;2268201;61;941;-87
2023/06/28 04:02:08;214285.00;0.71;370.51;0.00;0.00;0.62;;;;;22.90;1.00;;;;;;2268108;61;1618;-86
2023/06/28 04:04:35;218909.00;0.73;378.47;0.00;0.00;0.62;;;;;22.70;1.00;;;;;;2268178;61;1992;-86
2023/06/28 04:07:02;293524.00;0.98;506.79;0.00;0.00;0.62;;;;;22.50;1.00;;;;;;2268141;61;1372;-87
2023/06/28 04:09:29;191630.00;0.64;331.51;0.00;0.00;0.62;;;;;22.40;1.00;;;;;;2268119;61;2283;-88
2023/06/28 04:11:56;515658.00;1.72;888.79;27105.00;0.09;47.57;;;;;22.50;1.00;;;;;;2268151;61;1100;-87
2023/06/28 04:14:24;298858.00;1.00;515.96;0.00;0.00;0.62;;;;;22.60;1.00;;;;;;2268191;61;1131;-88
2023/06/28 04:16:52;207360.00;0.69;358.59;0.00;0.00;0.62;;;;;22.50;1.00;;;;;;2268187;61;1253;-87
2023/06/28 04:19:20;362327.00;1.21;625.05;0.00;0.00;0.62;;;;;22.60;1.00;;;;;;2268173;61;1077;-87
2023/06/28 04:21:47;518476.00;1.73;893.64;25242.00;0.08;44.35;;;;;22.40;1.00;;;;;;2268241;61;980;-88
2023/06/28 04:24:14;230167.00;0.77;397.84;0.00;0.00;0.62;;;;;22.40;1.00;;;;;;2268193;61;1116;-88
2023/06/28 04:26:41;352718.00;1.18;608.53;19473.00;0.06;34.36;;;;;22.30;1.00;;;;;;2268009;61;2005;-87
2023/06/28 04:29:08;292250.00;0.97;504.60;0.00;0.00;0.62;;;;;22.40;1.00;;;;;;2268119;61;1060;-87
2023/06/28 04:31:34;217329.00;0.72;375.75;0.00;0.00;0.62;;;;;22.50;1.00;;;;;;2268822;61;1013;-86
2023/06/28 04:34:03;309083.00;1.03;533.53;0.00;0.00;0.62;;;;;22.50;1.00;;;;;;2268785;61;2405;-87
2023/06/28 04:36:30;352428.00;1.17;608.03;0.00;0.00;0.62;;;;;22.60;1.00;;;;;;2268770;61;1333;-87
2023/06/28 04:38:57;189638.00;0.63;328.09;0.00;0.00;0.62;;;;;22.80;1.00;;;;;;2268788;61;1123;-86
2023/06/28 04:41:25;386517.00;1.29;666.63;0.00;0.00;0.62;;;;;23.00;1.00;;;;;;2268820;61;1095;-87
2023/06/28 04:43:54;403889.00;1.35;696.49;0.00;0.00;0.62;;;;;23.10;1.00;;;;;;2268719;61;1073;-86
2023/06/28 04:46:22;308570.00;1.03;532.65;0.00;0.00;0.62;;;;;23.20;1.00;;;;;;2268644;61;2010;-86
2023/06/28 04:48:50;318475.00;1.06;549.68;0.00;0.00;0.62;;;;;23.30;1.00;;;;;;2268713;61;1270;-86
2023/06/28 04:51:18;394914.00;1.32;681.06;0.00;0.00;0.62;;;;;23.30;1.00;;;;;;2268793;61;1014;-86
2023/06/28 04:53:45;329812.00;1.10;569.16;0.00;0.00;0.62;;;;;23.10;1.00;;;;;;2268271;61;1020;-87
2023/06/28 04:56:12;265656.00;0.89;458.87;0.00;0.00;0.62;;;;;23.00;1.00;;;;;;2268755;61;1038;-88
2023/06/28 04:58:39;518288.00;1.73;893.32;35593.00;0.12;62.26;;;;;23.10;1.00;;;;;;2268680;61;1402;-87
2023/06/28 05:01:07;251428.00;0.84;434.41;0.00;0.00;0.62;;;;;23.50;1.00;;;;;;2268724;61;1161;-88
2023/06/28 05:03:34;317924.00;1.06;548.73;0.00;0.00;0.62;;;;;23.50;1.00;;;;;;2268716;61;1037;-88
2023/06/28 05:06:02;225474.00;0.75;389.76;0.00;0.00;0.62;;;;;23.70;1.00;;;;;;2268703;61;1991;-88
2023/06/28 05:08:30;309885.00;1.03;534.91;13317.00;0.04;23.70;;;;;23.60;1.00;;;;;;2268691;61;1398;-85
2023/06/28 05:10:57;205602.00;0.69;355.57;0.00;0.00;0.62;;;;;24.00;1.00;;;;;;2268671;61;1127;-88
2023/06/28 05:13:24;235800.00;0.79;407.53;0.00;0.00;0.62;;;;;24.00;1.00;;;;;;2268704;61;1048;-87
2023/06/28 05:15:51;222562.00;0.74;384.75;0.00;0.00;0.62;;;;;23.80;1.00;;;;;;2268679;61;1005;-85
2023/06/28 05:18:18;382053.00;1.27;658.95;24023.00;0.08;42.24;;;;;23.70;1.00;;;;;;2268637;61;1742;-87
2023/06/28 05:20:45;327488.00;1.09;565.17;0.00;0.00;0.62;;;;;23.70;1.00;;;;;;2268588;61;1800;-88
2023/06/28 05:23:13;334938.00;1.12;577.97;31805.00;0.11;55.71;;;;;23.40;1.00;;;;;;2268660;61;1053;-86
2023/06/28 05:25:42;461083.00;1.54;794.85;0.00;0.00;0.62;;;;;23.40;1.00;;;;;;2268564;61;2006;-89
2023/06/28 05:28:11;110497.00;0.37;191.69;0.00;0.00;0.62;;;;;23.70;1.00;;;;;;2268491;61;1325;-89
2023/06/28 05:30:38;135243.00;0.45;234.37;0.00;0.00;0.62;;;;;24.20;1.00;;;;;;2268553;61;1170;-88
2023/06/28 05:33:05;237897.00;0.79;411.13;0.00;0.00;0.62;;;;;24.40;1.00;;;;;;2268593;61;1127;-86
2023/06/28 05:35:33;171825.00;0.57;297.41;8435.00;0.03;15.24;;;;;24.40;1.00;;;;;;2268600;61;1124;-87
2023/06/28 05:38:01;182585.00;0.61;315.94;0.00;0.00;0.62;;;;;24.50;1.00;;;;;;2268584;61;1365;-85
2023/06/28 05:40:28;366629.00;1.22;632.44;0.00;0.00;0.62;;;;;24.50;1.00;;;;;;2268489;61;1573;-88
2023/06/28 05:42:58;724014.00;2.41;1248.91;56109.00;0.19;97.75;;;;;24.40;1.00;;;;;;2268422;61;1802;-85
2023/06/28 05:45:26;700163.00;2.33;1207.52;59615.00;0.20;103.81;;;;;24.50;1.00;;;;;;2268520;61;1992;-86
2023/06/28 05:47:53;311549.00;1.04;537.77;0.00;0.00;0.62;;;;;24.90;1.00;;;;;;2268553;61;1448;-87
2023/06/28 05:50:21;277131.00;0.92;478.60;0.00;0.00;0.62;;;;;25.10;1.00;;;;;;2268421;61;1068;-87
2023/06/28 05:52:49;361228.00;1.20;623.16;0.00;0.00;0.62;;;;;25.10;1.00;;;;;;2268597;61;1100;-88
2023/06/28 05:55:16;345985.00;1.15;596.96;0.00;0.00;0.62;;;;;25.10;1.00;;;;;;2268528;61;1025;-89
2023/06/28 05:57:43;399905.00;1.33;689.64;52103.00;0.17;90.82;;;;;25.30;1.00;;;;;;2268481;61;1305;-87
2023/06/28 06:00:13;542993.00;1.81;935.88;15169.00;0.05;26.90;;;;;25.30;1.00;;;;;;2268482;61;1106;-88
2023/06/28 06:02:40;218146.00;0.73;377.15;0.00;0.00;0.62;;;;;25.30;1.00;;;;;;2268415;61;1125;-88
2023/06/28 06:05:07;878505.00;2.93;1518.40;108947.00;0.36;189.01;;;;;25.30;1.00;;;;;;2268430;61;1913;-87
2023/06/28 06:07:39;168995.00;0.56;292.54;0.00;0.00;0.62;;;;;25.70;1.00;;;;;;2268349;61;1357;-87
2023/06/28 06:10:07;345796.00;1.15;596.64;0.00;0.00;0.62;;;;;25.60;1.00;;;;;;2268254;61;1090;-86
2023/06/28 06:12:34;548335.00;1.83;945.09;41569.00;0.14;72.60;;;;;26.00;1.00;;;;;;2268343;61;1139;-87
2023/06/28 06:15:01;236480.00;0.79;408.70;0.00;0.00;0.62;;;;;25.90;1.00;;;;;;2268424;61;1065;-88
2023/06/28 06:17:29;436329.00;1.45;752.27;54907.00;0.18;95.67;;;;;26.10;1.00;;;;;;2268483;61;2330;-86
2023/06/28 06:19:56;468738.00;1.56;808.02;0.00;0.00;0.62;;;;;26.20;1.00;;;;;;2268339;61;1598;-87
2023/06/28 06:22:23;503177.00;1.68;867.29;222.00;0.00;1.00;;;;;26.10;1.00;;;;;;2268400;61;1095;-86
2023/06/28 06:24:50;392541.00;1.31;676.98;0.00;0.00;0.62;;;;;26.00;1.00;;;;;;2268405;61;1745;-88
2023/06/28 06:27:17;288300.00;0.96;497.81;11181.00;0.04;20.00;;;;;26.10;1.00;;;;;;2268386;61;1928;-87
2023/06/28 06:29:43;282011.00;0.94;486.99;16228.00;0.05;28.74;;;;;25.80;1.00;;;;;;2268457;61;1586;-86
2023/06/28 06:32:10;258748.00;0.86;447.00;0.00;0.00;0.62;;;;;26.00;1.00;;;;;;2268500;61;971;-86
2023/06/28 06:34:39;258485.00;0.86;446.54;18129.00;0.06;32.03;;;;;25.90;1.00;;;;;;2268448;61;1096;-87
2023/06/28 06:37:11;224870.00;0.75;388.72;0.00;0.00;0.62;;;;;26.00;1.00;;;;;;2271565;55;3761;-88
2023/06/28 06:39:40;410223.00;1.37;707.38;84708.00;0.28;147.17;;;;;26.20;1.00;;;;;;2272241;61;2003;-88
2023/06/28 06:42:07;311476.00;1.04;537.65;0.00;0.00;0.62;;;;;26.10;1.00;;;;;;2272366;61;1636;-89
2023/06/28 06:44:34;517273.00;1.72;891.57;48916.00;0.16;85.31;;;;;26.20;1.00;;;;;;2272418;61;981;-89
2023/06/28 06:47:01;485439.00;1.62;836.76;1774.00;0.01;3.69;;;;;26.60;1.00;;;;;;2272410;61;1992;-88
2023/06/28 06:49:27;721705.00;2.41;1244.90;61727.00;0.21;107.46;;;;;26.90;1.00;;;;;;2272419;61;1107;-87
2023/06/28 06:51:56;268397.00;0.89;463.59;0.00;0.00;0.62;;;;;26.70;1.00;;;;;;2272411;61;1851;-90
2023/06/28 06:54:24;345917.00;1.15;596.84;17739.00;0.06;31.35;;;;;26.60;1.00;;;;;;2272182;61;1063;-88
2023/06/28 06:56:51;331768.00;1.11;572.52;0.00;0.00;0.62;;;;;26.20;1.00;;;;;;2272357;61;1398;-87
2023/06/28 06:59:19;421055.00;1.40;726.00;46264.00;0.15;80.72;;;;;26.70;1.00;;;;;;2272385;61;1101;-87
2023/06/28 07:01:46;340121.00;1.13;586.88;35724.00;0.12;62.49;;;;;27.10;1.00;;;;;;2272307;61;1638;-88
2023/06/28 07:04:13;484099.00;1.61;834.45;107675.00;0.36;186.82;;;;;27.40;1.00;;;;;;2272297;61;1658;-87
2023/06/28 07:06:40;188862.00;0.63;326.75;0.00;0.00;0.62;;;;;27.40;1.00;;;;;;2272146;61;1998;-88
2023/06/28 07:09:09;462237.00;1.54;796.83;76258.00;0.25;132.57;;;;;27.70;1.00;;;;;;2272228;61;1005;-88
2023/06/28 07:11:36;300760.00;1.00;519.23;0.00;0.00;0.62;;;;;27.60;1.00;;;;;;2272187;61;1258;-88
2023/06/28 07:14:03;85437.00;0.28;148.43;0.00;0.00;0.62;;;;;27.70;1.00;;;;;;2272317;61;1321;-88
2023/06/28 07:16:30;158914.00;0.53;275.17;0.00;0.00;0.62;;;;;27.40;1.00;;;;;;2272194;61;1403;-87
2023/06/28 07:18:57;269224.00;0.90;465.01;0.00;0.00;0.62;;;;;27.40;1.00;;;;;;2272277;61;958;-86
2023/06/28 07:21:23;174598.00;0.58;302.19;0.00;0.00;0.62;;;;;27.90;1.00;;;;;;2272334;61;1591;-88
2023/06/28 07:23:51;254954.00;0.85;440.47;0.00;0.00;0.62;;;;;28.00;1.00;;;;;;2272176;61;1615;-87
2023/06/28 07:26:20;483714.00;1.61;833.79;49461.00;0.16;86.25;;;;;28.50;1.00;;;;;;2272262;61;1996;-88
2023/06/28 07:28:46;395637.00;1.32;682.30;0.00;0.00;0.62;;;;;28.60;1.00;;;;;;2272251;61;1275;-87
2023/06/28 07:31:13;148883.00;0.50;257.88;0.00;0.00;0.62;;;;;27.90;1.00;;;;;;2272334;61;1095;-87
2023/06/28 07:33:41;183013.00;0.61;316.68;0.00;0.00;0.62;;;;;28.00;1.00;;;;;;2272266;61;1141;-87
2023/06/28 07:36:08;261568.00;0.87;451.84;11314.00;0.04;20.23;;;;;28.70;1.00;;;;;;2272316;61;1174;-87
2023/06/28 07:38:35;355097.00;1.18;612.62;0.00;0.00;0.62;;;;;28.80;1.00;;;;;;2272208;61;1295;-87
2023/06/28 07:41:02;120620.00;0.40;209.15;0.00;0.00;0.62;;;;;29.10;1.00;;;;;;2272312;61;1025;-86
2023/06/28 07:43:30;142114.00;0.47;246.22;0.00;0.00;0.62;;;;;28.80;1.00;;;;;;2272197;61;1011;-87
2023/06/28 07:45:59;208661.00;0.70;360.83;0.00;0.00;0.62;;;;;28.80;1.00;;;;;;2272209;61;2002;-86
2023/06/28 07:48:26;242569.00;0.81;419.17;0.00;0.00;0.62;;;;;28.50;1.00;;;;;;2272242;61;1379;-88
2023/06/28 07:50:53;386598.00;1.29;666.77;6705.00;0.02;12.24;;;;;28.60;1.00;;;;;;2272218;61;1017;-86
2023/06/28 07:53:20;255742.00;0.85;441.83;5787.00;0.02;10.65;;;;;28.40;1.00;;;;;;2272181;61;1137;-87
2023/06/28 07:55:47;215254.00;0.72;372.18;11306.00;0.04;20.21;;;;;28.20;1.00;;;;;;2272314;61;1141;-87
2023/06/28 07:58:14;394708.00;1.32;680.71;0.00;0.00;0.62;;;;;28.30;1.00;;;;;;2272074;61;1729;-89
2023/06/28 08:00:42;220643.00;0.74;381.45;0.00;0.00;0.62;;;;;28.50;1.00;;;;;;2272215;61;923;-90
2023/06/28 08:03:09;731203.00;2.44;1261.39;84589.00;0.28;146.96;;;;;28.30;1.00;;;;;;2272235;61;1064;-89
2023/06/28 08:05:36;217551.00;0.73;376.13;7834.00;0.03;14.20;;;;;28.00;1.00;;;;;;2272602;61;1056;-89
2023/06/28 08:08:03;370186.00;1.23;638.56;0.00;0.00;0.62;;;;;27.20;1.00;;;;;;2272875;61;2003;-88
2023/06/28 08:10:30;313542.00;1.05;541.20;0.00;0.00;0.62;;;;;27.60;1.00;;;;;;2272880;61;996;-89
2023/06/28 08:12:57;393864.00;1.31;679.26;0.00;0.00;0.62;;;;;27.80;1.00;;;;;;2272919;61;2088;-90
2023/06/28 08:15:24;263528.00;0.88;455.22;0.00;0.00;0.62;;;;;27.70;1.00;;;;;;2272773;61;1552;-89
2023/06/28 08:17:52;191150.00;0.64;330.69;0.00;0.00;0.62;;;;;27.60;1.00;;;;;;2272922;61;1423;-88
2023/06/28 08:20:19;316730.00;1.06;546.68;0.00;0.00;0.62;;;;;27.50;1.00;;;;;;2272801;61;1084;-88
2023/06/28 08:22:46;379807.00;1.27;655.09;30923.00;0.10;54.18;;;;;27.30;1.00;;;;;;2272908;61;897;-88
2023/06/28 08:25:13;356906.00;1.19;615.73;0.00;0.00;0.62;;;;;27.30;1.00;;;;;;2272919;61;1587;-88
2023/06/28 08:27:39;338018.00;1.13;583.27;0.00;0.00;0.62;;;;;27.10;1.00;;;;;;2272825;61;2017;-88
2023/06/28 08:30:08;225462.00;0.75;389.74;0.00;0.00;0.62;;;;;26.60;1.00;;;;;;2272839;61;1037;-88
2023/06/28 08:32:35;245692.00;0.82;424.54;0.00;0.00;0.62;;;;;26.50;1.00;;;;;;2272857;61;1749;-87
2023/06/28 08:35:04;213378.00;0.71;368.95;0.00;0.00;0.62;;;;;26.10;1.00;;;;;;2272874;61;1154;-89
2023/06/28 08:37:34;384253.00;1.28;662.74;0.00;0.00;0.62;;;;;26.20;1.00;;;;;;2272637;61;1304;-88
2023/06/28 08:40:01;261897.00;0.87;452.41;0.00;0.00;0.62;;;;;26.50;1.00;;;;;;2280401;40;3658;-89
2023/06/28 08:42:29;192233.00;0.64;332.55;0.00;0.00;0.62;;;;;26.70;1.00;;;;;;2303511;56;3757;-87
2023/06/28 08:44:58;119003.00;0.40;206.36;0.00;0.00;0.62;;;;;26.60;1.00;;;;;;2291025;40;3596;-87
2023/06/28 08:47:29;121136.00;0.40;210.04;0.00;0.00;0.62;;;;;26.80;1.00;;;;;;2272648;61;2000;-88
2023/06/28 08:49:56;121347624.00;404.49;72387144.00;0.00;0.00;0.62;;;;;26.90;1.00;;;;;;2272505;61;982;-88
2023/06/28 08:52:26;304043.00;1.01;524.87;0.00;0.00;0.62;;;;;26.80;1.00;;;;;;2272689;61;1562;-87
2023/06/28 08:57:23;593076.00;1.98;1022.27;164586.00;0.55;284.94;;;;;27.50;1.00;;;;;;2274255;61;1408;-88
2023/06/28 08:59:50;63368.00;0.21;110.30;0.00;0.00;0.62;;;;;27.50;1.00;;;;;;2272661;61;1017;-88
2023/06/28 09:02:18;55779.00;0.19;97.18;0.00;0.00;0.62;;;;;27.60;1.00;;;;;;2272691;61;932;-88
2023/06/28 09:04:49;271721.00;0.91;469.30;50307.00;0.17;87.72;;;;;27.90;1.00;;;;;;2272556;61;1115;-88
2023/06/28 09:07:22;104450.00;0.35;181.25;39383.00;0.13;68.82;;;;;28.30;1.00;;;;;;2272610;61;1919;-88
2023/06/28 09:09:52;40883.00;0.14;71.42;0.00;0.00;0.62;;;;;28.50;1.00;;;;;;2272694;61;1062;-89
2023/06/28 09:12:20;151864.00;0.51;263.02;0.00;0.00;0.62;;;;;28.00;1.00;;;;;;2272733;61;1024;-89
2023/06/28 09:14:47;0.00;0.00;0.62;0.00;0.00;0.62;;;;;28.20;1.00;;;;;;2272667;61;1001;-89
2023/06/28 09:17:14;6168.00;0.02;11.31;0.00;0.00;0.62;;;;;28.40;1.00;;;;;;2272409;61;1389;-88
2023/06/28 09:19:41;0.00;0.00;0.62;0.00;0.00;0.62;;;;;28.60;1.00;;;;;;2272623;61;1054;-89
2023/06/28 09:22:09;74963.00;0.25;130.34;0.00;0.00;0.62;;;;;29.30;1.00;;;;;;2272744;61;1031;-90
2023/06/28 09:24:37;15503.00;0.05;27.48;0.00;0.00;0.62;;;;;30.00;1.00;;;;;;2272659;61;1110;-89
2023/06/28 09:27:08;41890.00;0.14;73.16;0.00;0.00;0.62;;;;;30.30;1.00;;;;;;2272620;61;1996;-90
2023/06/28 09:29:35;68089.00;0.23;118.46;0.00;0.00;0.62;;;;;29.70;1.00;;;;;;2272600;61;989;-88
2023/06/28 09:32:02;17230.00;0.06;30.47;0.00;0.00;0.62;;;;;29.80;1.00;;;;;;2272692;61;1075;-88
2023/06/28 09:34:29;15104.00;0.05;26.79;0.00;0.00;0.62;;;;;30.00;1.00;;;;;;2272660;61;1091;-88
2023/06/28 09:36:58;108631.00;0.36;188.47;0.00;0.00;0.62;;;;;29.90;1.00;;;;;;2272625;61;1424;-88
2023/06/28 09:39:25;0.00;0.00;0.62;0.00;0.00;0.62;;;;;30.00;1.00;;;;;;2272663;61;1067;-87
2023/06/28 09:41:54;82315.00;0.27;143.04;0.00;0.00;0.62;;;;;30.20;1.00;;;;;;2272669;61;1110;-88
2023/06/28 09:44:29;79532.00;0.27;138.23;0.00;0.00;0.62;;;;;29.70;1.00;;;;;;2272639;61;1757;-89
2023/06/28 09:47:02;82700.00;0.28;143.70;0.00;0.00;0.62;;;;;29.50;1.00;;;;;;2272581;61;2014;-89
2023/06/28 09:49:29;0.00;0.00;0.62;0.00;0.00;0.62;;;;;29.50;1.00;;;;;;2272674;61;1044;-89
2023/06/28 09:52:00;94401.00;0.31;163.91;0.00;0.00;0.62;;;;;30.00;1.00;;;;;;2272625;61;1064;-90
2023/06/28 09:54:34;26964.00;0.09;47.33;0.00;0.00;0.62;;;;;30.60;1.00;;;;;;2272636;61;1147;-89
2023/06/28 09:57:02;89944.00;0.30;156.21;0.00;0.00;0.62;;;;;30.50;1.00;;;;;;2272461;61;1389;-88
2023/06/28 09:59:33;0.00;0.00;0.62;0.00;0.00;0.62;;;;;30.60;1.00;;;;;;2272504;61;2459;-87
2023/06/28 10:02:04;175583.00;0.59;303.88;47660.00;0.16;83.14;;;;;30.90;1.00;;;;;;2272567;61;1078;-89